Terminal Aerodrome Forecast
Issued by NWS

Home | Current Version | Previous Version | Text Only | Print | Product List | Glossary On
Versions: 1 2 3 4 5 6 7 8 9 10 11 12 13 14 15 16 17 18 19 20
000
FTUS44 KTSA 191600 AAB
TAFFYV
TAF AMD
KFYV 191605Z 1916/2012 07003KT 1/4SM FG VV002
     FM191800 00000KT 2SM BR OVC005
     FM191900 03004KT 6SM BR OVC009
     FM200600 00000KT 2SM BR OVC003=

USA.gov is the U.S. government's official web portal to all federal, state and local government web resources and services.